This is the latest recevied weather packets stored in our database for station/object S59DKS-10. If no packets are shown the sender has not sent any weather packets the latest 10 day(s).
| Time | Temp. | Humidity | Pressure | Rain* | Wind** | Luminosity | Snow |
|---|---|---|---|---|---|---|---|
| 1777469815 | 11.11° C | 71% | 1020.1 hPa | - | - | - | - |
| 1777468916 | 10.56° C | 74% | 1019.9 hPa | - | - | - | - |
| 1777468017 | 10.56° C | 76% | 1020.1 hPa | - | - | - | - |
| 1777467118 | 10.56° C | 75% | 1020.6 hPa | - | - | - | - |
| 1777466227 | 10.56° C | 78% | 1020.1 hPa | - | - | - | - |
| 1777465319 | 10° C | 78% | 1020 hPa | - | - | - | - |
| 1777464497 | 10° C | 80% | 1020 hPa | - | - | - | - |
| 1777464420 | 10° C | 80% | 1020 hPa | - | - | - | - |
| 1777463521 | 10° C | 79% | 1019.9 hPa | - | - | - | - |
| 1777462622 | 10.56° C | 76% | 1020.5 hPa | - | - | - | - |
| 1777461722 | 10.56° C | 76% | 1019.9 hPa | - | - | - | - |
| 1777460824 | 11.11° C | 72% | 1020.3 hPa | - | - | - | - |
| 1777459921 | 11.67° C | 68% | 1020.3 hPa | - | - | - | - |
| 1777459065 | 12.78° C | 65% | 1020.4 hPa | - | - | - | - |
| 1777459022 | 12.78° C | 65% | 1020.4 hPa | - | - | - | - |
| 1777458123 | 13.89° C | 62% | 1020.4 hPa | - | - | - | - |
| 1777457224 | 13.89° C | 61% | 1020.4 hPa | - | - | - | - |
| 1777456331 | 13.33° C | 61% | 1020.1 hPa | - | - | - | - |
| 1777455426 | 13.33° C | 61% | 1020 hPa | - | - | - | - |
| 1777454527 | 13.33° C | 61% | 1019.4 hPa | - | - | - | - |
| 1777453628 | 13.33° C | 61% | 1019.9 hPa | - | - | - | - |
| 1777452728 | 12.78° C | 64% | 1019.4 hPa | - | - | - | - |
| 1777451829 | 12.22° C | 70% | 1019.2 hPa | - | - | - | - |
| 1777450926 | 12.22° C | 68% | 1020 hPa | - | - | - | - |
| 1777450027 | 12.78° C | 65% | 1020 hPa | - | - | - | - |
* Rain since midnight (hover to see other rain measurements)
** Current wind speed in m/s (hover to see current wind gust speed)